MU56 weather

CLOSED Brown Field
Broseley, Missouri, United States

Public forecast

Using degrees Fahrenheit for public forecast. Weather courtesy of forecast.io.

METAR (pilot weather report)

Closest report is Poplar Bluff Municipal Airport, 4.8 nm (8.8 km) NW. Retrieved 2019/06/20 13:53 UTC (1 hour ago):

KPOF 201353Z AUTO 30007KT 10SM CLR 23/20 A2976 RMK AO2 SLP075 T02330200

TAF (pilot weather forecast)

Closest forecast is Cape Girardeau Regional Airport, 45.6 nm (84.5 km) NE. Retrieved 2019/06/20 12:24 UTC (3 hours ago):

TAF KCGI 201122Z 2012/2112 25005KT P6SM SCT015 SCT070 TEMPO 2012/2016 BKN015 FM201600 30009KT P6SM BKN030 FM201800 30008KT P6SM SCT030 FM210000 VRB05KT P6SM SCT100